Beltana — VNFN — position and weather

sailwx.info

Track history (hours):
 
Tides and Currents Weather Stations Pressure Air Temp Water Temp Dewpoint Dewpoint Depression Visibility Wind Speed Wind Dir Waves Ship Positions

Beltana

Last reported at 2018-Feb-17 23:53 UTC. Time now 2018-Feb-22 03:02 UTC.
Position S 27°25' E 153°08'.

Length 31 m; draft 5 m.

Type: Tug. MMSI: 503354000.

Date/timePositionNaut miles runAvg speedWind from/ knotsBaromVisibWave heightAir tempDewpointWater temp
2018-Feb-17 23:53S 27°25' E 153°08'1 0.0
2018-Feb-16 20:05S 27°26' E 153°08'2 0.0
2018-Feb-14 18:33S 27°24' E 153°09'0 0.0
2018-Feb-14 18:09S 27°24' E 153°09'0 0.0
2018-Feb-14 18:00S 27°24' E 153°09'0 0.0
2018-Feb-14 16:51S 27°24' E 153°09'3 0.2
2018-Feb-14 04:30S 27°22' E 153°11'5 3.7
2018-Feb-14 03:08S 27°26' E 153°07'2 0.3
2018-Feb-13 19:05S 27°24' E 153°09'0 0.0
2018-Feb-13 19:00S 27°24' E 153°09'0 0.0
2018-Feb-13 11:31S 27°24' E 153°09'0 0.0
2018-Feb-13 11:30S 27°24' E 153°09'0 0.0
2018-Feb-13 11:00S 27°24' E 153°09'0 0.0
2018-Feb-13 10:20S 27°24' E 153°09'2 0.1
2018-Feb-12 16:13S 27°22' E 153°11'0 0.0
2018-Feb-12 15:45S 27°22' E 153°11'1 0.1
2018-Feb-12 10:30S 27°22' E 153°10'0 0.0
2018-Feb-12 09:11S 27°22' E 153°10'2 1.5
2018-Feb-12 07:57S 27°24' E 153°09'0 0.0
2018-Feb-12 06:03S 27°24' E 153°09'0 0.0
2018-Feb-11 21:11S 27°24' E 153°09'0 0.0
2018-Feb-11 20:56S 27°24' E 153°09'0 0.0
2018-Feb-11 20:30S 27°24' E 153°09'2 2.7
2018-Feb-11 19:51S 27°22' E 153°10'0 0.0
2018-Feb-11 19:30S 27°22' E 153°10'0 0.0
2018-Feb-11 17:27S 27°23' E 153°10'1 1.4
2018-Feb-11 16:59S 27°23' E 153°10'0 0.3
2018-Feb-11 16:19S 27°23' E 153°10'1 2.6
2018-Feb-11 15:58S 27°24' E 153°09'0 0.0
2018-Feb-11 15:28S 27°24' E 153°09'0 0.0
2018-Feb-11 14:22S 27°24' E 153°09'0 0.0
2018-Feb-11 13:58S 27°24' E 153°09'0 0.0
2018-Feb-11 13:28S 27°24' E 153°09'0 0.0
2018-Feb-11 12:52S 27°24' E 153°09'2 5.1
2018-Feb-11 12:30S 27°22' E 153°10'1 1.5
2018-Feb-11 11:55S 27°22' E 153°11'1 3.3
2018-Feb-11 11:30S 27°20' E 153°11'2 1.5
2018-Feb-11 10:18S 27°22' E 153°10'2 6.7
2018-Feb-11 10:00S 27°20' E 153°11'2 4.3
2018-Feb-11 09:30S 27°22' E 153°10'0 0.0
2018-Feb-10 12:21S 27°22' E 153°10'1 0.4
2018-Feb-10 08:57S 27°23' E 153°10'1 0.1
2018-Feb-10 03:17S 27°22' E 153°10'3 0.1
2018-Feb-07 23:54S 27°25' E 153°08'  
Track history (hours):
 
Tides and Currents Weather Stations Pressure Air Temp Water Temp Dewpoint Dewpoint Depression Visibility Wind Speed Wind Dir Waves Ship Positions

Beltana

Last reported at 2018-Feb-17 23:53 UTC. Time now 2018-Feb-22 03:02 UTC.
Position S 27°25' E 153°08'.

Length 31 m; draft 5 m.

Type: Tug. MMSI: 503354000.

Date/timePositionNaut miles runAvg speedWind from/ knotsBaromVisibWave heightAir tempDewpointWater temp
2018-Feb-17 23:53S 27°25' E 153°08'1 0.0
2018-Feb-16 20:05S 27°26' E 153°08'2 0.0
2018-Feb-14 18:33S 27°24' E 153°09'0 0.0
2018-Feb-14 18:09S 27°24' E 153°09'0 0.0
2018-Feb-14 18:00S 27°24' E 153°09'0 0.0
2018-Feb-14 16:51S 27°24' E 153°09'3 0.2
2018-Feb-14 04:30S 27°22' E 153°11'5 3.7
2018-Feb-14 03:08S 27°26' E 153°07'2 0.3
2018-Feb-13 19:05S 27°24' E 153°09'0 0.0
2018-Feb-13 19:00S 27°24' E 153°09'0 0.0
2018-Feb-13 11:31S 27°24' E 153°09'0 0.0
2018-Feb-13 11:30S 27°24' E 153°09'0 0.0
2018-Feb-13 11:00S 27°24' E 153°09'0 0.0
2018-Feb-13 10:20S 27°24' E 153°09'2 0.1
2018-Feb-12 16:13S 27°22' E 153°11'0 0.0
2018-Feb-12 15:45S 27°22' E 153°11'1 0.1
2018-Feb-12 10:30S 27°22' E 153°10'0 0.0
2018-Feb-12 09:11S 27°22' E 153°10'2 1.5
2018-Feb-12 07:57S 27°24' E 153°09'0 0.0
2018-Feb-12 06:03S 27°24' E 153°09'0 0.0
2018-Feb-11 21:11S 27°24' E 153°09'0 0.0
2018-Feb-11 20:56S 27°24' E 153°09'0 0.0
2018-Feb-11 20:30S 27°24' E 153°09'2 2.7
2018-Feb-11 19:51S 27°22' E 153°10'0 0.0
2018-Feb-11 19:30S 27°22' E 153°10'0 0.0
2018-Feb-11 17:27S 27°23' E 153°10'1 1.4
2018-Feb-11 16:59S 27°23' E 153°10'0 0.3
2018-Feb-11 16:19S 27°23' E 153°10'1 2.6
2018-Feb-11 15:58S 27°24' E 153°09'0 0.0
2018-Feb-11 15:28S 27°24' E 153°09'0 0.0
2018-Feb-11 14:22S 27°24' E 153°09'0 0.0
2018-Feb-11 13:58S 27°24' E 153°09'0 0.0
2018-Feb-11 13:28S 27°24' E 153°09'0 0.0
2018-Feb-11 12:52S 27°24' E 153°09'2 5.1
2018-Feb-11 12:30S 27°22' E 153°10'1 1.5
2018-Feb-11 11:55S 27°22' E 153°11'1 3.3
2018-Feb-11 11:30S 27°20' E 153°11'2 1.5
2018-Feb-11 10:18S 27°22' E 153°10'2 6.7
2018-Feb-11 10:00S 27°20' E 153°11'2 4.3
2018-Feb-11 09:30S 27°22' E 153°10'0 0.0
2018-Feb-10 12:21S 27°22' E 153°10'1 0.4
2018-Feb-10 08:57S 27°23' E 153°10'1 0.1
2018-Feb-10 03:17S 27°22' E 153°10'3 0.1
2018-Feb-07 23:54S 27°25' E 153°08'  

Dump ship's entire track history